METAR KZZZ 210508Z 25003KT OVC045 14/11 A3008 RMK SLP183 T01390111 10222 20139 52017 402220111